• Join FlightAware (Why Join?)
  • Login
  • US Flag 
04:01AM EDT


 

Airport Tracker/Info


-or-


 

Live Flight TrackerFlight Track Log ✈ FIV602 ✈ 27-Jun-2013 ✈ KLUK - KICT

Flight Track Log - Related Links

Times and Time Zones

All times are in EDT time to prevent confusion due to time zone crossing. See the FIV602 flight status page for this flight to view local times or setup timezone preferences in your user account.

Time Position Orientation Groundspeed Altitude Reporting Facility
EDT Latitude Longitude Course Direction KTS MPH feet Rate Location/Type
07:57PM 39.0333 -84.4500 207° Southwest 254 292 5,200  Level Cincinnati TRACON
07:58PM 39.0028 -84.5511 249° West 252 290 9,400 3,300 Climbing Indianapolis Center
07:59PM 38.9839 -84.6550 257° West 290 334 12,600 3,000 Climbing Indianapolis Center
08:00PM 38.9669 -84.7708 259° West 325 374 15,600 2,460 Climbing Indianapolis Center
08:01PM 38.9511 -84.8864 260° West 336 387 17,700 2,040 Climbing Indianapolis Center
08:02PM 38.9494 -85.0111 269° West 348 400 19,900 2,160 Climbing Indianapolis Center
08:03PM 38.9481 -85.1369 269° West 352 405 22,200 2,220 Climbing Indianapolis Center
08:04PM 38.9453 -85.2903 269° West 358 412 24,600 1,920 Climbing Indianapolis Center
08:05PM 38.9433 -85.4228 269° West 372 428 26,200 1,620 Climbing Indianapolis Center
08:06PM 38.9422 -85.5575 269° West 376 433 28,000 840 Climbing Indianapolis Center
08:07PM 38.9397 -85.6989 269° West 394 453 28,000  Level Indianapolis Center
08:08PM 38.9369 -85.8469 269° West 410 472 28,000 900 Level Indianapolis Center
08:09PM 38.9333 -85.9939 268° West 412 474 29,900 1,920 Climbing Indianapolis Center
08:10PM 38.9314 -86.1281 269° West 380 437 32,000 1,020 Climbing Indianapolis Center
08:11PM 38.9283 -86.2686 268° West 393 452 32,000  Level Indianapolis Center
08:12PM 38.9236 -86.4533 268° West 427 491 32,000  Level Indianapolis Center
08:13PM 38.9197 -86.6164 268° West 434 499 32,000 480 Level Indianapolis Center
08:14PM 38.9161 -86.7642 268° West 421 484 33,000 1,140 Climbing Indianapolis Center
08:15PM 38.9119 -86.9108 268° West 414 476 34,400 2,100 Climbing Indianapolis Center
08:16PM 38.9086 -87.0358 268° West 352 405 37,400 1,920 Climbing Indianapolis Center
08:17PM 38.9050 -87.1614 268° West 352 405 38,400 960 Climbing Indianapolis Center
08:18PM 38.9006 -87.2892 267° West 358 412 39,500 720 Climbing Indianapolis Center
08:19PM 38.8967 -87.4156 268° West 356 410 40,000 240 Climbing Indianapolis Center
08:20PM 38.8914 -87.5792 268° West 382 440 40,000  Level Indianapolis Center
08:21PM 38.8869 -87.7211 268° West 396 456 40,000  Level Indianapolis Center
08:22PM 38.8817 -87.8664 267° West 405 466 40,000  Level Indianapolis Center
08:23PM 38.8756 -88.0133 267° West 410 472 40,000  Level Indianapolis Center
08:24PM 38.8714 -88.1325 267° West 411 473 40,000  Level Kansas City Center
08:25PM 38.8661 -88.2778 267° West 409 471 40,000  Level Kansas City Center
08:26PM 38.8603 -88.4247 267° West 411 473 40,000  Level Kansas City Center
08:27PM 38.8533 -88.5719 267° West 413 475 40,000  Level Kansas City Center
08:28PM 38.8456 -88.7292 266° West 418 481 40,000  Level Kansas City Center
08:29PM 38.8392 -88.8742 267° West 412 474 40,000  Level Kansas City Center
08:30PM 38.8339 -89.0442 268° West 410 472 40,000  Level Kansas City Center
08:31PM 38.8275 -89.1894 267° West 409 471 40,000  Level Kansas City Center
08:32PM 38.8200 -89.3336 266° West 408 470 40,000  Level Kansas City Center
08:34PM 38.8125 -89.4892 267° West 407 468 40,000  Level Kansas City Center
08:35PM 38.8064 -89.6339 267° West 408 470 40,000  Level Kansas City Center
08:36PM 38.7972 -89.7736 265° West 409 471 40,000  Level Kansas City Center
08:37PM 38.7900 -89.9181 266° West 408 470 40,000  Level Kansas City Center
08:38PM 38.7825 -90.0811 267° West 409 471 40,000  Level Kansas City Center
08:39PM 38.7753 -90.2256 266° West 408 470 40,000  Level Kansas City Center
08:40PM 38.7667 -90.3717 266° West 409 471 40,000  Level Kansas City Center
08:41PM 38.7567 -90.5153 265° West 408 470 40,000  Level Kansas City Center
08:42PM 38.7461 -90.6594 265° West 407 468 40,000  Level Kansas City Center
08:44PM 38.7278 -90.9839 266° West 417 480 40,000  Level Kansas City Center
08:45PM 38.7192 -91.1281 266° West 412 474 40,000  Level Kansas City Center
08:46PM 38.7125 -91.2719 267° West 408 470 40,000  Level Kansas City Center
08:47PM 38.7033 -91.4175 265° West 411 473 40,000  Level Kansas City Center
08:48PM 38.6939 -91.5686 265° West 414 476 40,000  Level Kansas City Center
08:49PM 38.6825 -91.7131 264° West 411 473 40,000  Level Kansas City Center
08:50PM 38.6731 -91.8586 265° West 412 474 40,000  Level Kansas City Center
08:51PM 38.6592 -92.0328 264° West 412 474 40,000  Level Kansas City Center
08:52PM 38.6503 -92.1783 266° West 413 475 40,000  Level Kansas City Center
08:53PM 38.6381 -92.3247 264° West 415 478 40,000  Level Kansas City Center
08:54PM 38.6272 -92.4675 264° West 410 472 40,000  Level Kansas City Center
08:55PM 38.6167 -92.6131 265° West 410 472 40,000  Level Kansas City Center
08:56PM 38.6042 -92.7592 264° West 413 475 40,000  Level Kansas City Center
08:57PM 38.5931 -92.9044 264° West 413 475 40,000  Level Kansas City Center
08:58PM 38.5783 -93.0775 264° West 412 474 40,000  Level Kansas City Center
08:59PM 38.5672 -93.2214 264° West 409 471 40,000  Level Kansas City Center
09:00PM 38.5547 -93.3667 264° West 410 472 40,000  Level Kansas City Center
09:01PM 38.5433 -93.5117 264° West 412 474 40,000  Level Kansas City Center
09:02PM 38.5303 -93.6567 263° West 411 473 40,000  Level Kansas City Center
09:03PM 38.5169 -93.8200 264° West 411 473 40,000  Level Kansas City Center
09:04PM 38.5042 -93.9611 263° West 416 479 40,000  Level Kansas City Center
09:05PM 38.4897 -94.1261 264° West 418 481 40,000  Level Kansas City Center
09:06PM 38.4767 -94.2678 263° West 419 482 40,000  Level Kansas City Center
09:07PM 38.4633 -94.4100 263° West 419 482 40,000  Level Kansas City Center
09:08PM 38.4481 -94.5756 263° West 419 482 40,000  Level Kansas City Center
09:10PM 38.4344 -94.7175 263° West 420 483 40,000  Level Kansas City Center
09:11PM 38.4189 -94.8836 263° West 421 484 40,000  Level Kansas City Center
09:12PM 38.4044 -95.0250 263° West 420 483 40,000  Level Kansas City Center
09:13PM 38.3914 -95.1669 263° West 419 482 40,000  Level Kansas City Center
09:14PM 38.3747 -95.3300 263° West 416 479 40,000  Level Kansas City Center
09:15PM 38.3614 -95.4678 263° West 412 474 40,000  Level Kansas City Center
09:16PM 38.3444 -95.6308 263° West 414 476 40,000 -180 Level Kansas City Center
09:17PM 38.3300 -95.7722 263° West 417 480 39,700 -660 Descending Kansas City Center
09:18PM 38.3158 -95.9111 263° West 415 478 38,700 -1,080 Descending Kansas City Center
09:19PM 38.2978 -96.0711 262° West 410 472 37,600 -1,080 Descending Kansas City Center
09:20PM 38.2833 -96.2139 263° West 423 487 36,600 -1,440 Descending Kansas City Center
09:21PM 38.2650 -96.3819 262° West 430 495 34,700 -1,920 Descending Kansas City Center
09:22PM 38.2483 -96.5308 262° West 434 499 32,700 -1,980 Descending Kansas City Center
09:23PM 38.2314 -96.6778 262° West 423 487 30,700 -2,040 Descending Kansas City Center
09:24PM 38.2186 -96.7969 262° West 425 489 29,100 -2,280 Descending Kansas City Center
09:25PM 38.1856 -96.9489 255° West 454 522 26,800 -3,060 Descending Kansas City Center
09:26PM 38.0953 -97.0539 222° Southwest 447 514 23,000 -4,140 Descending Kansas City Center
09:27PM 37.9967 -97.1389 214° Southwest 425 489 18,500 -3,840 Descending Kansas City Center
09:28PM 37.9039 -97.2200 215° Southwest 397 457 15,200 -2,700 Descending Kansas City Center
09:29PM 37.8289 -97.2925 217° Southwest 323 372 13,100 -2,760 Descending Kansas City Center
09:30PM 37.7889 -97.3758 239° Southwest 263 303 9,700 -3,600 Descending Kansas City Center
09:31PM 37.8269 -97.4228 316° Northwest 228 262 5,900 -2,460 Descending Kansas City Center
09:32PM 37.7947 -97.3550 121° Southeast 230 265 3,800 -1,380 Descending Kansas City Center
09:33PM 37.7553 -97.3756 202° Southwest 236 272 3,200 -660 Descending Kansas City Center
09:34PM 37.7169 -97.4372 232° Southwest 217 250 2,800 -660 Descending Kansas City Center
09:35PM 37.6858 -97.4631 213° Southwest 115 132 1,900 -600 Descending Kansas City Center
09:36PM 37.6461 -97.4319 148° Southeast 135 155 1,400 -360 Descending Kansas City Center
09:38PM 37.6499 -97.4331 202° Southwest  Level Estimated
09:45PM 37.6499 -97.4331 202° Southwest  Level Estimated